Bowie - northern half: Past 24 Hour Conditions

 

Stony Rapids Airport

02:00 AM CST 20 April 2014
This table is a summary of hourly weather conditions for the past 24 hours.
Date / Time
(CST)
Wind(knots) Conditions Visibility(km) Pressure(kPa) Air tempC) Relative humidity(%) Dew pointC) Wind Chill
20 April 2014
2:00 ENE 2 Cloudy 16 101.3 -1 53 -10 -3
1:00 ENE 2 Partly Cloudy 16 101.3 -3 63 -9 -5
0:00 E 4 Mostly Cloudy 16 101.3 -2 58 -10 -6
19 April 2014
23:00 ESE 5 Mainly Clear 16 101.3 -2 53 -10 -5
22:00 E 4 Clear 16 101.3 -2 63 -8 -5
21:00 SSE 4 Clear 16 101.2 1 36 -12 *
20:00 SSE 3 Sunny 16 101.2 6 27 -12 *
19:00 SE 6 Sunny 16 101.2 7 26 -12 *
18:00 SE 7 gust 16 Sunny 16 101.2 7 25 -12 *
17:00 ESE 12 Sunny 16 101.2 8 25 -11 *
16:00 SE 10 Sunny 16 101.2 8 22 -13 *
15:00 SE 8 gust 15 Sunny 16 101.3 7 23 -13 *
14:00 ESE 11 gust 18 Sunny 16 101.3 6 24 -13 *
13:00 ESE 5 Sunny 16 101.4 6 28 -12 *
12:00 E 9 gust 15 Sunny 16 101.4 5 38 -9 *
11:00 E 7 Sunny 16 101.5 3 37 -10 *
10:00 ENE 6 Sunny 16 101.6 0 41 -11 *
9:00 E 8 Sunny 16 101.6 -1 46 -12 -6
8:00 E 7 Sunny 16 101.6 -3 48 -13 -8
7:00 E 5 Sunny 16 101.7 -7 59 -13 -11
6:00 ESE 6 Sunny 16 101.7 -8 65 -14 -14
5:00 ESE 5 Clear 16 101.7 -8 65 -14 -13
4:00 SE 4 Clear 16 101.7 -8 64 -13 -12
3:00 ESE 6 Clear 16 101.7 -7 62 -13 -12
2:00 ESE 5 Clear 16 101.8 -6 60 -13 -10
 
Map of Mackenzie - Mackenzie River marine weather areas Great Slave Lake - 45141 Great Slave Lake North Arm - 45150 Herschel Island Komakuk Beach Shingle Point Airport Aklavik Airport Cape Parry Airport Fort Good Hope Airport Tulita Airport Fort Providence Fort Reliance Fort Resolution Airport Fort Simpson Airport Hay River/Merlyn Carter Airport Inner Whaleback Rocks Inuvik Airport Keats Point Norman Wells Airport Paulatuk Airport Pelly Island Tuktoyaktuk Airport Wrigley Airport Yellowknife Airport Kugluktuk Airport Hat Island Cambridge Bay Airport Cape Peel West Stefansson Island Ulukhaktok Airport Sachs Harbour Airport Thomsen River Egg Island Fort Chipewyan Airport Stony Rapids Airport Liverpool Bay Little Chicago Lutselke Airport Storm Hills Croker River Prairie River Uranium City Bathurst Inlet Gateshead Island
Legend: buoyBuoy land stationLand Station